Time;durP1;ratioP1;P1;durP2;ratioP2;P2;SDS_P1;SDS_P2;PMS_P1;PMS_P2;Temp;Humidity;BMP_temperature;BMP_pressure;BME280_temperature;BME280_humidity;BME280_pressure;Samples;Min_cycle;Max_cycle;Signal;HPM_P1;HPM_P2
2022/12/09 00:07:51;;;;;;;2.65;0.88;;;;;;;;;;21172175;28;20048;-65
2022/12/09 00:17:56;;;;;;;3.00;0.88;;;;;;;;;;21171367;27;20380;-66
2022/12/09 00:27:58;;;;;;;4.30;1.08;;;;;;;;;;21170134;28;20048;-64
2022/12/09 00:38:00;;;;;;;5.90;1.30;;;;;;;;;;21168916;28;20051;-63
2022/12/09 00:48:02;;;;;;;3.55;1.40;;;;;;;;;;21169729;28;20126;-64
2022/12/09 00:58:05;;;;;;;9.13;5.82;;;;;;;;;;21167794;28;20051;-64
2022/12/09 01:08:07;;;;;;;10.43;3.53;;;;;;;;;;21166887;28;20048;-65
2022/12/09 01:18:10;;;;;;;8.13;2.88;;;;;;;;;;21167161;28;20138;-64
2022/12/09 01:28:12;;;;;;;5.78;1.98;;;;;;;;;;21165423;28;20055;-65
2022/12/09 01:38:15;;;;;;;4.80;2.10;;;;;;;;;;21166939;28;20059;-65
2022/12/09 01:48:22;;;;;;;7.00;2.45;;;;;;;;;;21165528;28;20075;-65
2022/12/09 01:58:26;;;;;;;7.47;2.55;;;;;;;;;;21163399;28;20060;-65
2022/12/09 02:08:28;;;;;;;4.88;2.05;;;;;;;;;;21162190;28;20047;-65
2022/12/09 02:18:43;;;;;;;6.22;2.10;;;;;;;;;;21163122;28;20055;-64
2022/12/09 02:28:53;;;;;;;8.13;1.55;;;;;;;;;;21163839;28;20498;-66
2022/12/09 02:38:57;;;;;;;6.47;1.95;;;;;;;;;;21169874;28;20483;-64
2022/12/09 02:49:08;;;;;;;9.20;3.63;;;;;;;;;;21179373;28;20052;-65
2022/12/09 02:59:20;;;;;;;10.85;4.03;;;;;;;;;;21177891;28;20062;-66
2022/12/09 03:09:32;;;;;;;9.10;3.47;;;;;;;;;;21176792;28;20054;-65
2022/12/09 03:19:41;;;;;;;8.30;4.28;;;;;;;;;;21177209;28;20043;-64
2022/12/09 03:29:49;;;;;;;9.52;3.80;;;;;;;;;;21175796;28;20054;-65
2022/12/09 03:39:56;;;;;;;8.75;3.58;;;;;;;;;;21174082;28;20070;-65
2022/12/09 03:50:03;;;;;;;8.90;3.63;;;;;;;;;;21176048;28;20040;-64
2022/12/09 04:00:11;;;;;;;14.27;4.55;;;;;;;;;;21175986;28;20139;-65
2022/12/09 04:10:33;;;;;;;7.63;4.15;;;;;;;;;;21174512;28;20499;-62
2022/12/09 04:20:42;;;;;;;14.40;5.80;;;;;;;;;;21171055;28;20059;-64
2022/12/09 04:30:51;;;;;;;10.73;4.23;;;;;;;;;;21170316;28;20093;-65
2022/12/09 04:40:55;;;;;;;12.43;5.45;;;;;;;;;;21169073;28;20563;-64
2022/12/09 04:51:16;;;;;;;11.32;5.07;;;;;;;;;;21169690;28;20054;-65
2022/12/09 05:01:20;;;;;;;14.80;5.05;;;;;;;;;;21166468;28;20059;-64
2022/12/09 05:11:23;;;;;;;11.60;5.30;;;;;;;;;;21167064;28;20453;-63
2022/12/09 05:21:26;;;;;;;17.42;6.80;;;;;;;;;;21166313;28;20415;-64
2022/12/09 05:31:29;;;;;;;13.15;5.97;;;;;;;;;;21165825;28;20058;-64
2022/12/09 05:41:31;;;;;;;10.70;4.18;;;;;;;;;;21164932;28;20051;-66
2022/12/09 05:51:33;;;;;;;9.70;3.22;;;;;;;;;;21167048;28;20047;-65
2022/12/09 06:01:35;;;;;;;7.53;2.58;;;;;;;;;;21165671;28;20061;-65
2022/12/09 06:11:37;;;;;;;7.20;2.50;;;;;;;;;;21170045;28;20048;-65
2022/12/09 06:21:41;;;;;;;7.55;2.53;;;;;;;;;;21180653;27;20055;-65
2022/12/09 06:31:42;;;;;;;5.00;2.50;;;;;;;;;;21180932;28;20157;-64
2022/12/09 06:41:45;;;;;;;9.10;3.33;;;;;;;;;;21178790;28;20201;-65
2022/12/09 06:51:47;;;;;;;5.45;2.67;;;;;;;;;;21178748;28;20044;-65
2022/12/09 07:01:48;;;;;;;4.95;2.20;;;;;;;;;;21177883;28;20063;-65
2022/12/09 07:11:50;;;;;;;9.50;2.03;;;;;;;;;;21176626;28;20054;-65
2022/12/09 07:21:52;;;;;;;6.05;2.33;;;;;;;;;;21175008;28;20051;-65
2022/12/09 07:31:54;;;;;;;9.80;1.90;;;;;;;;;;21176679;28;20079;-64
2022/12/09 07:41:56;;;;;;;3.92;1.85;;;;;;;;;;21173758;28;20047;-64
2022/12/09 07:51:58;;;;;;;6.55;1.73;;;;;;;;;;21173272;28;20456;-64
2022/12/09 08:02:01;;;;;;;10.13;2.20;;;;;;;;;;21171848;28;20147;-63
2022/12/09 08:12:03;;;;;;;8.38;2.35;;;;;;;;;;21172200;28;20122;-63
2022/12/09 08:22:05;;;;;;;7.72;2.67;;;;;;;;;;21170826;28;20563;-63
2022/12/09 08:32:07;;;;;;;9.45;2.92;;;;;;;;;;21169771;28;20055;-62
2022/12/09 08:42:08;;;;;;;6.45;2.40;;;;;;;;;;21168442;28;20450;-63
2022/12/09 08:52:10;;;;;;;8.98;2.15;;;;;;;;;;21167544;28;20127;-63
2022/12/09 09:02:12;;;;;;;9.10;3.60;;;;;;;;;;21166468;28;20047;-63
2022/12/09 09:12:14;;;;;;;6.90;2.83;;;;;;;;;;21167687;28;20052;-64
2022/12/09 09:22:16;;;;;;;19.85;3.25;;;;;;;;;;21166507;28;20096;-66
2022/12/09 09:32:17;;;;;;;14.45;5.57;;;;;;;;;;21165749;28;20128;-65
2022/12/09 09:42:23;;;;;;;7.38;3.50;;;;;;;;;;21165165;28;20051;-63
2022/12/09 09:52:25;;;;;;;13.43;4.93;;;;;;;;;;21162530;28;20047;-65
2022/12/09 10:02:47;;;;;;;11.52;3.95;;;;;;;;;;21163689;28;20055;-64
2022/12/09 10:12:54;;;;;;;3.72;1.85;;;;;;;;;;21163636;28;20506;-64
2022/12/09 10:22:59;;;;;;;7.05;3.03;;;;;;;;;;21162772;28;20043;-62
2022/12/09 10:33:01;;;;;;;7.25;3.08;;;;;;;;;;21161407;28;20050;-62
2022/12/09 10:43:37;;;;;;;4.90;2.40;;;;;;;;;;21162308;28;20058;-64
2022/12/09 10:53:44;;;;;;;10.10;2.38;;;;;;;;;;21161913;28;20055;-59
2022/12/09 11:03:53;;;;;;;9.85;4.43;;;;;;;;;;21174219;28;20138;-62
2022/12/09 11:13:55;;;;;;;7.63;3.67;;;;;;;;;;21176468;28;20139;-63
2022/12/09 11:23:59;;;;;;;6.57;2.38;;;;;;;;;;21175112;28;20047;-62
2022/12/09 11:34:04;;;;;;;5.25;2.40;;;;;;;;;;21175007;28;20093;-63
2022/12/09 11:44:17;;;;;;;3.75;1.75;;;;;;;;;;21174713;28;20044;-65
2022/12/09 11:54:24;;;;;;;4.95;2.28;;;;;;;;;;21173916;28;20460;-61
2022/12/09 12:05:02;;;;;;;4.97;2.38;;;;;;;;;;21174152;28;20467;-59
2022/12/09 12:15:13;;;;;;;9.57;5.25;;;;;;;;;;20911436;28;20060;-60
2022/12/09 12:25:33;;;;;;;8.98;3.97;;;;;;;;;;20911397;28;20528;-68
2022/12/09 12:35:44;;;;;;;6.50;3.67;;;;;;;;;;20911252;28;20048;-64
2022/12/09 12:56:27;;;;;;;9.93;5.72;;;;;;;;;;21168934;28;20048;-64
2022/12/09 13:06:40;;;;;;;4.53;3.25;;;;;;;;;;21168440;28;20114;-61
2022/12/09 13:16:44;;;;;;;13.43;4.18;;;;;;;;;;21166644;28;20052;-68
2022/12/09 13:27:05;;;;;;;4.80;2.67;;;;;;;;;;21166082;28;20119;-66
2022/12/09 13:37:28;;;;;;;5.50;2.88;;;;;;;;;;21162501;28;20048;-66
2022/12/09 13:47:35;;;;;;;5.65;3.63;;;;;;;;;;21163935;28;20051;-64
2022/12/09 13:57:47;;;;;;;7.88;3.50;;;;;;;;;;21163766;28;20509;-65
2022/12/09 14:07:51;;;;;;;7.30;4.00;;;;;;;;;;21164436;28;20050;-66
2022/12/09 14:18:03;;;;;;;6.35;4.40;;;;;;;;;;21163887;28;20430;-64
2022/12/09 14:28:11;;;;;;;5.75;3.30;;;;;;;;;;21163683;28;20391;-65
2022/12/09 14:38:16;;;;;;;6.70;4.05;;;;;;;;;;21176762;28;20122;-65
2022/12/09 14:48:23;;;;;;;5.80;3.70;;;;;;;;;;21179658;28;20426;-64
2022/12/09 14:58:26;;;;;;;6.43;3.10;;;;;;;;;;21177838;28;20056;-65
2022/12/09 15:08:35;;;;;;;5.97;3.80;;;;;;;;;;21177507;28;20434;-65
2022/12/09 15:18:38;;;;;;;7.50;4.15;;;;;;;;;;21173893;28;20052;-66
2022/12/09 15:28:45;;;;;;;6.45;3.95;;;;;;;;;;21173094;28;20127;-67
2022/12/09 15:38:54;;;;;;;7.57;4.47;;;;;;;;;;21171675;28;20494;-67
2022/12/09 15:48:57;;;;;;;9.93;5.15;;;;;;;;;;21173936;28;20430;-64
2022/12/09 15:59:03;;;;;;;7.47;4.22;;;;;;;;;;21170760;28;20115;-65
2022/12/09 16:09:12;;;;;;;7.72;5.80;;;;;;;;;;21169924;28;20047;-64
2022/12/09 16:19:25;;;;;;;7.23;4.70;;;;;;;;;;21169289;28;20087;-64
2022/12/09 16:29:31;;;;;;;9.20;5.60;;;;;;;;;;21168806;28;20051;-71
2022/12/09 16:39:39;;;;;;;8.35;5.20;;;;;;;;;;21168377;28;20047;-63
2022/12/09 16:49:42;;;;;;;12.10;7.35;;;;;;;;;;21166323;28;20079;-65
2022/12/09 16:59:45;;;;;;;11.38;7.57;;;;;;;;;;21165853;28;20515;-65
2022/12/09 17:09:47;;;;;;;9.57;6.00;;;;;;;;;;21166119;28;20108;-63
2022/12/09 17:19:51;;;;;;;4.80;3.30;;;;;;;;;;21164191;28;20052;-65
2022/12/09 17:29:53;;;;;;;3.95;2.25;;;;;;;;;;21164914;28;20085;-64
2022/12/09 17:39:55;;;;;;;7.22;4.28;;;;;;;;;;21162935;28;20048;-64
2022/12/09 17:49:57;;;;;;;5.25;2.95;;;;;;;;;;21154601;28;20500;-66
2022/12/09 17:59:59;;;;;;;17.55;8.18;;;;;;;;;;21161383;28;20055;-62
2022/12/09 18:10:01;;;;;;;14.52;8.50;;;;;;;;;;21160437;28;20047;-67
2022/12/09 18:20:04;;;;;;;6.55;3.47;;;;;;;;;;21143118;28;20078;-70
2022/12/09 18:30:06;;;;;;;6.55;3.58;;;;;;;;;;21161238;28;20216;-62
2022/12/09 18:40:09;;;;;;;6.68;3.50;;;;;;;;;;21166507;28;20052;-73
2022/12/09 18:50:10;;;;;;;5.28;2.83;;;;;;;;;;21163165;28;20475;-69
2022/12/09 19:00:13;;;;;;;3.92;2.63;;;;;;;;;;21158489;28;20082;-63
2022/12/09 19:10:15;;;;;;;5.88;3.10;;;;;;;;;;21159234;28;20052;-70
2022/12/09 19:20:17;;;;;;;3.25;2.08;;;;;;;;;;21163084;28;20061;-63
2022/12/09 19:30:19;;;;;;;4.05;1.88;;;;;;;;;;21172403;28;20055;-63
2022/12/09 19:40:21;;;;;;;3.80;2.00;;;;;;;;;;21171666;28;20070;-62
2022/12/09 19:50:24;;;;;;;2.78;1.73;;;;;;;;;;21171838;28;20562;-63
2022/12/09 20:00:26;;;;;;;3.13;1.52;;;;;;;;;;21170108;28;20059;-63
2022/12/09 20:10:28;;;;;;;2.75;1.80;;;;;;;;;;21169792;28;20048;-65
2022/12/09 20:20:30;;;;;;;2.60;1.75;;;;;;;;;;21168416;28;20062;-63
2022/12/09 20:30:32;;;;;;;2.83;1.67;;;;;;;;;;21169791;28;20406;-64
2022/12/09 20:40:35;;;;;;;2.47;1.55;;;;;;;;;;21166792;28;20083;-62
2022/12/09 20:50:38;;;;;;;5.28;1.77;;;;;;;;;;21167430;28;20043;-64
2022/12/09 21:00:40;;;;;;;3.28;2.22;;;;;;;;;;21164491;28;20094;-64
2022/12/09 21:10:42;;;;;;;4.55;2.63;;;;;;;;;;21165293;28;20491;-66
2022/12/09 21:20:46;;;;;;;3.28;1.88;;;;;;;;;;21164969;28;20403;-63
2022/12/09 21:30:49;;;;;;;3.08;1.75;;;;;;;;;;21164308;28;20048;-64
2022/12/09 21:40:51;;;;;;;3.05;2.10;;;;;;;;;;21161233;28;20486;-63
2022/12/09 21:50:54;;;;;;;4.68;2.67;;;;;;;;;;21161041;28;20134;-63
2022/12/09 22:00:57;;;;;;;3.05;2.00;;;;;;;;;;21159898;28;20138;-62
2022/12/09 22:11:00;;;;;;;3.35;2.10;;;;;;;;;;21161550;28;20062;-64
2022/12/09 22:21:06;;;;;;;2.30;2.03;;;;;;;;;;21160087;28;20093;-64
2022/12/09 22:31:13;;;;;;;3.63;2.58;;;;;;;;;;21161217;28;20048;-65
2022/12/09 22:41:18;;;;;;;5.55;2.72;;;;;;;;;;21159841;28;20051;-67
2022/12/09 22:51:22;;;;;;;4.20;1.30;;;;;;;;;;21160083;28;20043;-64
2022/12/09 23:01:26;;;;;;;2.97;1.88;;;;;;;;;;21174683;28;20060;-62
2022/12/09 23:11:29;;;;;;;4.25;1.70;;;;;;;;;;21175735;28;20097;-63
2022/12/09 23:21:32;;;;;;;5.25;2.10;;;;;;;;;;21175330;28;20048;-62
2022/12/09 23:31:35;;;;;;;4.85;1.58;;;;;;;;;;21173691;28;20044;-62
2022/12/09 23:41:40;;;;;;;3.45;1.80;;;;;;;;;;21173992;28;20541;-62
2022/12/09 23:51:43;;;;;;;5.30;2.10;;;;;;;;;;21172334;28;20043;-61
